createdAt,value
2019-03-13T00:00:45.684Z,0.00
2019-03-13T00:01:45.671Z,0.00
2019-03-13T00:02:45.685Z,0.00
2019-03-13T00:03:45.649Z,0.00
2019-03-13T00:04:45.637Z,0.00
2019-03-13T00:05:45.626Z,0.00
2019-03-13T00:06:45.655Z,0.00
2019-03-13T00:07:45.602Z,0.00
2019-03-13T00:08:45.591Z,0.00
2019-03-13T00:09:45.581Z,0.00
2019-03-13T00:10:45.567Z,0.00
2019-03-13T00:11:45.609Z,0.00
2019-03-13T00:12:45.546Z,0.00
2019-03-13T00:13:45.574Z,0.00
2019-03-13T00:14:45.525Z,0.00
2019-03-13T00:15:45.516Z,0.00
2019-03-13T00:16:45.500Z,0.00
2019-03-13T00:17:45.491Z,0.00
2019-03-13T00:18:45.503Z,0.00
2019-03-13T00:19:45.469Z,0.00
2019-03-13T00:20:45.457Z,0.00
2019-03-13T00:21:45.449Z,0.00
2019-03-13T00:22:45.457Z,0.00
2019-03-13T00:23:45.427Z,0.00
2019-03-13T00:24:45.436Z,0.00
2019-03-13T00:25:45.400Z,0.00
2019-03-13T00:26:45.390Z,0.00
2019-03-13T00:27:45.378Z,0.00
2019-03-13T00:28:45.365Z,0.00
2019-03-13T00:29:45.378Z,0.00
2019-03-13T00:30:45.347Z,0.00
2019-03-13T00:31:45.359Z,0.00
2019-03-13T00:32:45.321Z,0.00
2019-03-13T00:33:45.315Z,0.00
2019-03-13T00:34:45.300Z,0.00
2019-03-13T00:35:45.312Z,0.00
2019-03-13T00:36:45.276Z,0.00
2019-03-13T00:37:45.265Z,0.00
2019-03-13T00:38:45.265Z,0.00
2019-03-13T00:39:45.245Z,0.00
2019-03-13T00:40:45.254Z,0.00
2019-03-13T00:41:45.220Z,0.00
2019-03-13T00:42:45.212Z,0.00
2019-03-13T00:43:45.200Z,0.00
2019-03-13T00:44:45.187Z,0.00
2019-03-13T00:45:45.216Z,0.00
2019-03-13T00:46:45.165Z,0.00
2019-03-13T00:47:45.157Z,0.00
2019-03-13T00:48:45.147Z,0.00
2019-03-13T00:49:45.129Z,0.00
2019-03-13T00:50:45.165Z,0.00
2019-03-13T00:51:45.112Z,0.00
2019-03-13T00:52:45.211Z,0.00
2019-03-13T00:53:45.086Z,0.00
2019-03-13T00:54:45.074Z,0.00
2019-03-13T00:55:45.065Z,0.00
2019-03-13T00:56:45.055Z,0.00
2019-03-13T00:57:45.066Z,0.00
2019-03-13T00:58:45.031Z,0.00
2019-03-13T00:59:45.043Z,0.00
2019-03-13T01:00:45.009Z,0.00
2019-03-13T01:01:44.995Z,0.00
2019-03-13T01:02:44.990Z,0.00
2019-03-13T01:03:44.997Z,0.00
2019-03-13T01:04:44.986Z,0.00
2019-03-13T01:05:44.952Z,0.00
2019-03-13T01:06:44.939Z,0.00
2019-03-13T01:07:44.929Z,0.00
2019-03-13T01:08:44.918Z,0.00
2019-03-13T01:09:45.009Z,0.00
2019-03-13T01:10:44.895Z,0.00
2019-03-13T01:11:44.907Z,0.00
2019-03-13T01:12:44.872Z,0.00
2019-03-13T01:13:44.867Z,0.00
2019-03-13T01:14:44.904Z,0.00
2019-03-13T01:15:44.852Z,0.00
2019-03-13T01:16:44.831Z,0.00
2019-03-13T01:17:44.815Z,0.00
2019-03-13T01:18:44.890Z,0.00
2019-03-13T01:19:44.817Z,0.00
2019-03-13T01:20:44.783Z,0.00
2019-03-13T01:21:44.771Z,0.00
2019-03-13T01:22:44.763Z,0.00
2019-03-13T01:23:44.748Z,0.00
2019-03-13T01:24:44.765Z,0.00
2019-03-13T01:25:44.727Z,0.00
2019-03-13T01:26:44.721Z,0.00
2019-03-13T01:27:44.708Z,0.00
2019-03-13T01:28:44.699Z,0.00
2019-03-13T01:29:44.707Z,0.00
2019-03-13T01:30:44.687Z,0.00
2019-03-13T01:31:44.659Z,0.00
2019-03-13T01:32:44.646Z,0.00
2019-03-13T01:33:44.668Z,0.00
2019-03-13T01:34:44.630Z,0.00
2019-03-13T01:35:44.616Z,0.00
2019-03-13T01:36:44.603Z,0.00
2019-03-13T01:37:44.592Z,0.00
2019-03-13T01:38:44.604Z,0.00
2019-03-13T01:39:44.576Z,0.00
2019-03-13T01:40:44.559Z,0.00
2019-03-13T01:41:44.563Z,0.00
2019-03-13T01:42:44.576Z,0.00
2019-03-13T01:43:44.525Z,0.00
2019-03-13T01:44:44.513Z,0.00
2019-03-13T01:45:44.506Z,0.00
2019-03-13T01:46:44.491Z,0.00
2019-03-13T01:47:44.502Z,0.00
2019-03-13T01:48:44.494Z,0.00
2019-03-13T01:49:44.507Z,0.00
2019-03-13T01:50:44.446Z,0.00
2019-03-13T01:51:44.435Z,0.00
2019-03-13T01:52:44.425Z,0.00
2019-03-13T01:53:44.415Z,0.00
2019-03-13T01:54:44.417Z,0.00
2019-03-13T01:55:44.394Z,0.00
2019-03-13T01:56:44.379Z,0.00
2019-03-13T01:57:44.400Z,0.00
2019-03-13T01:58:44.357Z,0.00
2019-03-13T01:59:44.346Z,0.00
2019-03-13T02:00:44.335Z,0.00
2019-03-13T02:01:44.323Z,0.00
2019-03-13T02:02:44.336Z,0.00
2019-03-13T02:03:44.300Z,0.00
2019-03-13T02:04:44.290Z,0.00
2019-03-13T02:05:44.280Z,0.00
2019-03-13T02:06:44.322Z,0.00
2019-03-13T02:07:44.259Z,0.00
2019-03-13T02:08:44.246Z,0.00
2019-03-13T02:09:44.232Z,0.00
2019-03-13T02:10:44.225Z,0.00
2019-03-13T02:11:44.235Z,0.00
2019-03-13T02:12:44.204Z,0.00
2019-03-13T02:13:44.188Z,0.00
2019-03-13T02:14:44.182Z,0.00
2019-03-13T02:15:44.190Z,0.00
2019-03-13T02:16:44.155Z,0.00
2019-03-13T02:17:44.142Z,0.00
2019-03-13T02:18:44.160Z,0.00
2019-03-13T02:19:44.121Z,0.00
2019-03-13T02:20:44.149Z,0.00
2019-03-13T02:21:44.100Z,0.00
2019-03-13T02:22:44.111Z,0.00
2019-03-13T02:23:44.077Z,0.00
2019-03-13T02:24:44.085Z,0.00
2019-03-13T02:25:44.052Z,0.00
2019-03-13T02:26:44.044Z,0.00
2019-03-13T02:27:44.041Z,0.00
2019-03-13T02:28:44.042Z,0.00
2019-03-13T02:29:44.031Z,0.00
2019-03-13T02:30:43.996Z,0.00
2019-03-13T02:31:43.985Z,0.00
2019-03-13T02:32:43.974Z,0.00
2019-03-13T02:33:43.968Z,0.00
2019-03-13T02:34:43.979Z,0.00
2019-03-13T02:35:43.942Z,0.00
2019-03-13T02:36:43.929Z,0.00
2019-03-13T02:37:43.923Z,0.00
2019-03-13T02:38:43.932Z,0.00
2019-03-13T02:39:43.896Z,0.00
2019-03-13T02:40:43.884Z,0.00
2019-03-13T02:41:43.875Z,0.00
2019-03-13T02:42:43.863Z,0.00
2019-03-13T02:43:43.878Z,0.00
2019-03-13T02:44:43.846Z,0.00
2019-03-13T02:45:43.829Z,0.00
2019-03-13T02:46:43.820Z,0.00
2019-03-13T02:47:43.836Z,0.00
2019-03-13T02:48:43.820Z,0.00
2019-03-13T02:49:43.787Z,0.00
2019-03-13T02:50:43.780Z,0.00
2019-03-13T02:51:43.793Z,0.00
2019-03-13T02:52:43.751Z,0.00
2019-03-13T02:53:43.743Z,0.00
2019-03-13T02:54:43.730Z,0.00
2019-03-13T02:55:43.720Z,0.00
2019-03-13T02:56:43.734Z,0.00
2019-03-13T02:57:43.697Z,0.00
2019-03-13T02:58:43.683Z,0.00
2019-03-13T02:59:43.673Z,0.00
2019-03-13T03:00:43.686Z,0.00
2019-03-13T03:01:43.663Z,0.00
2019-03-13T03:02:43.661Z,0.00
2019-03-13T03:03:43.626Z,0.00
2019-03-13T03:04:43.615Z,0.00
2019-03-13T03:05:43.628Z,0.00
2019-03-13T03:06:43.597Z,0.00
2019-03-13T03:07:43.587Z,0.00
2019-03-13T03:08:43.572Z,0.00
2019-03-13T03:09:43.569Z,0.00
2019-03-13T03:10:43.565Z,0.00
2019-03-13T03:11:43.561Z,0.00
2019-03-13T03:12:43.531Z,0.00
2019-03-13T03:13:43.519Z,0.00
2019-03-13T03:14:43.504Z,0.00
2019-03-13T03:15:43.516Z,0.00
2019-03-13T03:16:43.483Z,0.00
2019-03-13T03:17:43.471Z,0.00
2019-03-13T03:18:43.463Z,0.00
2019-03-13T03:19:43.450Z,0.00
2019-03-13T03:20:43.460Z,0.00
2019-03-13T03:21:43.457Z,0.00
2019-03-13T03:22:43.420Z,0.00
2019-03-13T03:23:45.153Z,0.00
2019-03-13T03:24:43.399Z,0.00
2019-03-13T03:25:43.425Z,0.00
2019-03-13T03:26:43.370Z,0.00
2019-03-13T03:27:43.366Z,0.00
2019-03-13T03:28:43.353Z,0.00
2019-03-13T03:29:43.353Z,0.00
2019-03-13T03:30:43.359Z,0.00
2019-03-13T03:31:43.367Z,0.00
2019-03-13T03:32:43.342Z,0.00
2019-03-13T03:33:43.314Z,0.00
2019-03-13T03:34:43.285Z,0.00
2019-03-13T03:35:43.270Z,0.00
2019-03-13T03:36:43.302Z,0.00
2019-03-13T03:37:43.252Z,0.00
2019-03-13T03:38:43.237Z,0.00
2019-03-13T03:39:43.231Z,0.00
2019-03-13T03:40:43.214Z,0.00
2019-03-13T03:41:43.240Z,0.00
2019-03-13T03:42:43.202Z,0.00
2019-03-13T03:43:43.183Z,0.00
2019-03-13T03:44:43.173Z,0.00
2019-03-13T03:45:43.159Z,0.00
2019-03-13T03:46:43.162Z,0.00
2019-03-13T03:47:43.166Z,0.00
2019-03-13T03:48:43.124Z,0.00
2019-03-13T03:49:43.113Z,0.00
2019-03-13T03:50:43.104Z,0.00
2019-03-13T03:51:43.095Z,0.00
2019-03-13T03:52:43.103Z,0.00
2019-03-13T03:53:43.082Z,0.00
2019-03-13T03:54:43.083Z,0.00
2019-03-13T03:55:43.051Z,0.00
2019-03-13T03:56:43.046Z,0.00
2019-03-13T03:57:43.022Z,0.00
2019-03-13T03:58:43.012Z,0.00
2019-03-13T03:59:43.021Z,0.00
2019-03-13T04:00:42.992Z,0.00
2019-03-13T04:01:42.983Z,0.00
2019-03-13T04:02:42.967Z,0.00
2019-03-13T04:03:42.988Z,0.00
2019-03-13T04:04:42.946Z,0.00
2019-03-13T04:05:42.942Z,0.00
2019-03-13T04:06:42.927Z,0.00
2019-03-13T04:07:42.968Z,0.00
2019-03-13T04:08:42.923Z,0.00
2019-03-13T04:09:43.064Z,0.00
2019-03-13T04:10:42.879Z,0.00
2019-03-13T04:11:42.866Z,0.00
2019-03-13T04:12:42.856Z,0.00
2019-03-13T04:13:44.897Z,0.00
2019-03-13T04:14:42.832Z,0.00
2019-03-13T04:15:42.823Z,0.00
2019-03-13T04:16:42.809Z,0.00
2019-03-13T04:17:42.809Z,0.00
2019-03-13T04:18:42.803Z,0.00
2019-03-13T04:19:42.776Z,0.00
2019-03-13T04:20:42.793Z,0.00
2019-03-13T04:21:42.753Z,0.00
2019-03-13T04:22:42.746Z,0.00
2019-03-13T04:23:42.734Z,0.00
2019-03-13T04:24:42.725Z,0.00
2019-03-13T04:25:42.736Z,0.00
2019-03-13T04:26:42.724Z,0.00
2019-03-13T04:27:42.687Z,0.00
2019-03-13T04:28:42.675Z,0.00
2019-03-13T04:29:42.667Z,0.00
2019-03-13T04:30:42.675Z,0.00
2019-03-13T04:31:42.672Z,0.00
2019-03-13T04:32:42.631Z,0.00
2019-03-13T04:33:42.621Z,0.00
2019-03-13T04:34:42.613Z,0.00
2019-03-13T04:35:42.601Z,0.00
2019-03-13T04:36:42.603Z,0.00
2019-03-13T04:37:42.589Z,0.00
2019-03-13T04:38:42.565Z,0.00
2019-03-13T04:39:42.552Z,0.00
2019-03-13T04:40:42.539Z,0.00
2019-03-13T04:41:42.544Z,0.00
2019-03-13T04:42:42.518Z,0.00
2019-03-13T04:43:42.509Z,0.00
2019-03-13T04:44:42.496Z,0.00
2019-03-13T04:45:42.502Z,0.00
2019-03-13T04:46:42.473Z,0.00
2019-03-13T04:47:42.474Z,0.00
2019-03-13T04:48:42.450Z,0.00
2019-03-13T04:49:42.442Z,0.00
2019-03-13T04:50:42.450Z,0.00
2019-03-13T04:51:42.417Z,0.00
2019-03-13T04:52:42.406Z,0.00
2019-03-13T04:53:42.416Z,0.00
2019-03-13T04:54:42.408Z,0.00
2019-03-13T04:55:42.394Z,0.00
2019-03-13T04:56:42.361Z,0.00
2019-03-13T04:57:42.364Z,0.00
2019-03-13T04:58:42.393Z,0.00
2019-03-13T04:59:42.326Z,0.00
2019-03-13T05:00:42.316Z,0.00
2019-03-13T05:01:42.305Z,0.00
2019-03-13T05:02:42.301Z,0.00
2019-03-13T05:03:42.316Z,0.00
2019-03-13T05:04:42.270Z,0.00
2019-03-13T05:05:42.267Z,0.00
2019-03-13T05:06:42.248Z,0.00
2019-03-13T05:07:42.236Z,0.00
2019-03-13T05:08:45.360Z,0.00
2019-03-13T05:09:42.223Z,0.00
2019-03-13T05:10:42.206Z,0.00
2019-03-13T05:11:42.198Z,0.00
2019-03-13T05:12:42.183Z,0.00
2019-03-13T05:13:42.193Z,0.00
2019-03-13T05:14:42.162Z,0.00
2019-03-13T05:15:42.153Z,0.00
2019-03-13T05:16:42.138Z,0.00
2019-03-13T05:17:42.151Z,0.00
2019-03-13T05:18:42.114Z,0.00
2019-03-13T05:19:42.102Z,0.00
2019-03-13T05:20:42.092Z,0.00
2019-03-13T05:21:42.080Z,0.00
2019-03-13T05:22:42.083Z,0.00
2019-03-13T05:23:42.058Z,0.00
2019-03-13T05:24:42.064Z,0.00
2019-03-13T05:25:42.040Z,0.00
2019-03-13T05:26:42.035Z,0.00
2019-03-13T05:27:42.075Z,0.00
2019-03-13T05:28:42.001Z,0.00
2019-03-13T05:29:41.992Z,0.00
2019-03-13T05:30:41.983Z,0.00
2019-03-13T05:31:41.970Z,0.00
2019-03-13T05:32:41.979Z,0.00
2019-03-13T05:33:41.946Z,0.00
2019-03-13T05:34:41.938Z,0.00
2019-03-13T05:35:41.962Z,0.00
2019-03-13T05:36:41.913Z,0.00
2019-03-13T05:37:41.905Z,0.00
2019-03-13T05:38:41.890Z,0.00
2019-03-13T05:39:41.882Z,0.00
2019-03-13T05:40:41.895Z,0.00
2019-03-13T05:41:41.885Z,0.00
2019-03-13T05:42:41.845Z,0.00
2019-03-13T05:43:41.859Z,5.62
2019-03-13T05:44:41.866Z,5.62
2019-03-13T05:45:41.836Z,5.62
2019-03-13T05:46:41.824Z,5.62
2019-03-13T05:47:41.821Z,5.62
2019-03-13T05:48:41.823Z,5.62
2019-03-13T05:49:41.791Z,5.62
2019-03-13T05:50:41.757Z,11.25
2019-03-13T05:51:41.764Z,11.25
2019-03-13T05:52:41.763Z,11.25
2019-03-13T05:53:41.724Z,11.25
2019-03-13T05:54:41.750Z,11.25
2019-03-13T05:55:41.703Z,11.25
2019-03-13T05:56:41.690Z,11.25
2019-03-13T05:57:41.707Z,11.25
2019-03-13T05:58:41.668Z,11.25
2019-03-13T05:59:41.655Z,11.25
2019-03-13T06:00:41.681Z,11.25
2019-03-13T06:01:41.632Z,11.25
2019-03-13T06:02:41.648Z,16.88
2019-03-13T06:03:41.610Z,16.88
2019-03-13T06:04:41.617Z,16.88
2019-03-13T06:05:41.586Z,16.88
2019-03-13T06:06:41.616Z,16.88
2019-03-13T06:07:41.595Z,22.50
2019-03-13T06:08:41.555Z,22.50
2019-03-13T06:09:41.590Z,22.50
2019-03-13T06:10:41.559Z,22.50
2019-03-13T06:11:41.520Z,22.50
2019-03-13T06:12:41.518Z,22.50
2019-03-13T06:13:41.523Z,22.50
2019-03-13T06:14:41.487Z,16.88
2019-03-13T06:15:41.475Z,22.50
2019-03-13T06:16:41.471Z,22.50
2019-03-13T06:17:41.480Z,22.50
2019-03-13T06:18:41.443Z,16.88
2019-03-13T06:19:41.456Z,16.88
2019-03-13T06:20:41.419Z,16.88
2019-03-13T06:21:41.409Z,16.88
2019-03-13T06:22:41.398Z,16.88
2019-03-13T06:23:41.385Z,16.88
2019-03-13T06:24:41.404Z,16.88
2019-03-13T06:25:41.364Z,16.88
2019-03-13T06:26:41.358Z,16.88
2019-03-13T06:27:41.369Z,16.88
2019-03-13T06:28:41.330Z,16.88
2019-03-13T06:29:41.330Z,16.88
2019-03-13T06:30:41.338Z,16.88
2019-03-13T06:31:41.314Z,16.88
2019-03-13T06:32:41.320Z,22.50
2019-03-13T06:33:41.276Z,22.50
2019-03-13T06:34:41.264Z,22.50
2019-03-13T06:35:41.262Z,22.50
2019-03-13T06:36:41.242Z,22.50
2019-03-13T06:37:41.242Z,22.50
2019-03-13T06:38:41.218Z,22.50
2019-03-13T06:39:41.235Z,22.50
2019-03-13T06:40:41.240Z,22.50
2019-03-13T06:41:41.226Z,22.50
2019-03-13T06:42:41.175Z,22.50
2019-03-13T06:43:41.166Z,22.50
2019-03-13T06:44:41.157Z,22.50
2019-03-13T06:45:41.249Z,22.50
2019-03-13T06:46:41.132Z,22.50
2019-03-13T06:47:41.119Z,22.50
2019-03-13T06:48:41.135Z,22.50
2019-03-13T06:49:41.095Z,22.50
2019-03-13T06:50:41.089Z,28.12
2019-03-13T06:51:41.131Z,22.50
2019-03-13T06:52:41.085Z,22.50
2019-03-13T06:53:41.095Z,22.50
2019-03-13T06:54:41.064Z,22.50
2019-03-13T06:55:41.026Z,22.50
2019-03-13T06:56:41.019Z,22.50
2019-03-13T06:57:41.045Z,22.50
2019-03-13T06:58:41.023Z,22.50
2019-03-13T06:59:40.982Z,22.50
2019-03-13T07:00:40.975Z,22.50
2019-03-13T07:01:40.960Z,16.88
2019-03-13T07:02:40.952Z,16.88
2019-03-13T07:03:40.976Z,22.50
2019-03-13T07:04:40.927Z,22.50
2019-03-13T07:05:40.939Z,28.12
2019-03-13T07:06:40.907Z,33.75
2019-03-13T07:07:40.894Z,33.75
2019-03-13T07:08:40.970Z,28.12
2019-03-13T07:09:40.896Z,28.12
2019-03-13T07:10:40.878Z,28.12
2019-03-13T07:11:40.846Z,22.50
2019-03-13T07:12:40.838Z,28.12
2019-03-13T07:13:40.856Z,28.12
2019-03-13T07:14:40.841Z,33.75
2019-03-13T07:15:40.804Z,33.75
2019-03-13T07:16:40.797Z,33.75
2019-03-13T07:17:40.781Z,28.12
2019-03-13T07:18:40.824Z,28.12
2019-03-13T07:19:40.757Z,28.12
2019-03-13T07:20:40.746Z,28.12
2019-03-13T07:21:40.738Z,28.12
2019-03-13T07:22:40.724Z,28.12
2019-03-13T07:23:40.741Z,33.75
2019-03-13T07:24:40.702Z,33.75
2019-03-13T07:25:40.715Z,33.75
2019-03-13T07:26:40.681Z,39.38
2019-03-13T07:27:40.675Z,39.38
2019-03-13T07:28:40.658Z,45.00
2019-03-13T07:29:40.697Z,45.00
2019-03-13T07:30:40.684Z,45.00
2019-03-13T07:31:40.646Z,45.00
2019-03-13T07:32:40.612Z,45.00
2019-03-13T07:33:40.601Z,45.00
2019-03-13T07:34:43.532Z,45.00
2019-03-13T07:35:40.601Z,45.00
2019-03-13T07:36:40.594Z,50.62
2019-03-13T07:37:40.556Z,50.62
2019-03-13T07:38:40.588Z,50.62
2019-03-13T07:39:40.560Z,50.62
2019-03-13T07:40:40.531Z,50.62
2019-03-13T07:41:40.538Z,50.62
2019-03-13T07:42:40.501Z,45.00
2019-03-13T07:43:40.512Z,50.62
2019-03-13T07:44:40.479Z,50.62
2019-03-13T07:45:40.466Z,56.25
2019-03-13T07:46:40.453Z,56.25
2019-03-13T07:47:40.446Z,56.25
2019-03-13T07:48:40.460Z,61.88
2019-03-13T07:49:40.424Z,67.50
2019-03-13T07:50:40.408Z,67.50
2019-03-13T07:51:40.418Z,61.88
2019-03-13T07:52:40.387Z,61.88
2019-03-13T07:53:40.395Z,61.88
2019-03-13T07:54:40.365Z,61.88
2019-03-13T07:55:40.354Z,67.50
2019-03-13T07:56:40.384Z,67.50
2019-03-13T07:57:40.339Z,61.88
2019-03-13T07:58:40.360Z,61.88
2019-03-13T07:59:40.308Z,61.88
2019-03-13T08:00:40.297Z,61.88
2019-03-13T08:01:40.313Z,67.50
2019-03-13T08:02:40.275Z,67.50
2019-03-13T08:03:40.265Z,67.50
2019-03-13T08:04:40.281Z,61.88
2019-03-13T08:05:40.266Z,61.88
2019-03-13T08:06:40.288Z,61.88
2019-03-13T08:07:40.242Z,61.88
2019-03-13T08:08:40.256Z,61.88
2019-03-13T08:09:40.195Z,61.88
2019-03-13T08:10:40.236Z,61.88
2019-03-13T08:11:40.173Z,61.88
2019-03-13T08:12:40.173Z,61.88
2019-03-13T08:13:40.153Z,61.88
2019-03-13T08:14:40.158Z,56.25
2019-03-13T08:15:40.160Z,56.25
2019-03-13T08:16:40.120Z,56.25
2019-03-13T08:17:40.170Z,61.88
2019-03-13T08:18:40.094Z,67.50
2019-03-13T08:19:40.084Z,61.88
2019-03-13T08:20:40.073Z,67.50
2019-03-13T08:21:40.064Z,78.75
2019-03-13T08:22:40.084Z,73.12
2019-03-13T08:23:40.064Z,73.12
2019-03-13T08:24:40.028Z,73.12
2019-03-13T08:25:40.074Z,73.12
2019-03-13T08:26:40.033Z,78.75
2019-03-13T08:27:39.994Z,84.38
2019-03-13T08:28:39.986Z,78.75
2019-03-13T08:29:39.971Z,84.38
2019-03-13T08:30:39.963Z,90.00
2019-03-13T08:31:39.991Z,84.38
2019-03-13T08:32:39.949Z,78.75
2019-03-13T08:33:39.974Z,84.38
2019-03-13T08:34:39.919Z,90.00
2019-03-13T08:35:39.929Z,95.62
2019-03-13T08:36:40.909Z,106.88
2019-03-13T08:37:41.930Z,118.12
2019-03-13T08:38:39.915Z,123.75
2019-03-13T08:39:39.861Z,123.75
2019-03-13T08:40:39.898Z,112.50
2019-03-13T08:41:39.861Z,118.12
2019-03-13T08:42:39.858Z,123.75
2019-03-13T08:43:39.815Z,123.75
2019-03-13T08:44:39.809Z,118.12
2019-03-13T08:45:39.804Z,135.00
2019-03-13T08:46:39.788Z,146.25
2019-03-13T08:47:42.263Z,157.50
2019-03-13T08:48:39.761Z,163.12
2019-03-13T08:49:39.774Z,163.12
2019-03-13T08:50:39.738Z,157.50
2019-03-13T08:51:39.795Z,168.75
2019-03-13T08:52:39.714Z,168.75
2019-03-13T08:53:39.703Z,174.38
2019-03-13T08:54:39.716Z,168.75
2019-03-13T08:55:39.680Z,168.75
2019-03-13T08:56:39.669Z,151.88
2019-03-13T08:57:39.660Z,157.50
2019-03-13T08:58:39.646Z,151.88
2019-03-13T08:59:39.658Z,135.00
2019-03-13T09:00:39.626Z,135.00
2019-03-13T09:01:39.664Z,135.00
2019-03-13T09:02:39.601Z,146.25
2019-03-13T09:03:39.592Z,157.50
2019-03-13T09:04:42.052Z,168.75
2019-03-13T09:05:39.596Z,163.12
2019-03-13T09:06:39.558Z,157.50
2019-03-13T09:07:39.547Z,146.25
2019-03-13T09:08:39.534Z,146.25
2019-03-13T09:09:39.522Z,146.25
2019-03-13T09:10:39.549Z,135.00
2019-03-13T09:11:39.508Z,129.38
2019-03-13T09:12:39.493Z,118.12
2019-03-13T09:13:39.478Z,123.75
2019-03-13T09:14:39.470Z,168.75
2019-03-13T09:15:39.478Z,157.50
2019-03-13T09:16:39.445Z,191.25
2019-03-13T09:17:39.513Z,174.38
2019-03-13T09:18:39.449Z,163.12
2019-03-13T09:19:39.411Z,146.25
2019-03-13T09:20:39.401Z,151.88
2019-03-13T09:21:39.387Z,168.75
2019-03-13T09:22:39.379Z,191.25
2019-03-13T09:23:39.394Z,185.62
2019-03-13T09:24:39.355Z,191.25
2019-03-13T09:25:39.364Z,185.62
2019-03-13T09:26:39.351Z,208.12
2019-03-13T09:27:39.321Z,174.38
2019-03-13T09:28:39.325Z,180.00
2019-03-13T09:29:39.586Z,185.62
2019-03-13T09:30:39.312Z,185.62
2019-03-13T09:31:39.274Z,185.62
2019-03-13T09:32:39.272Z,185.62
2019-03-13T09:33:39.259Z,185.62
2019-03-13T09:34:39.274Z,180.00
2019-03-13T09:35:39.238Z,208.12
2019-03-13T09:36:39.228Z,196.88
2019-03-13T09:37:39.209Z,174.38
2019-03-13T09:38:39.200Z,168.75
2019-03-13T09:39:39.218Z,163.12
2019-03-13T09:40:39.176Z,168.75
2019-03-13T09:41:39.165Z,163.12
2019-03-13T09:42:39.152Z,157.50
2019-03-13T09:43:39.143Z,157.50
2019-03-13T09:44:39.151Z,157.50
2019-03-13T09:45:39.116Z,247.50
2019-03-13T09:46:39.110Z,241.88
2019-03-13T09:47:39.098Z,225.00
2019-03-13T09:48:39.082Z,258.75
2019-03-13T09:49:39.119Z,202.50
2019-03-13T09:50:39.071Z,253.12
2019-03-13T09:51:39.055Z,253.12
2019-03-13T09:52:39.042Z,286.88
2019-03-13T09:53:39.030Z,185.62
2019-03-13T09:54:39.060Z,275.62
2019-03-13T09:55:39.005Z,258.75
2019-03-13T09:56:39.015Z,157.50
2019-03-13T09:57:38.985Z,157.50
2019-03-13T09:58:38.973Z,174.38
2019-03-13T09:59:43.500Z,163.12
2019-03-13T10:00:38.962Z,275.62
2019-03-13T10:01:38.937Z,270.00
2019-03-13T10:02:38.927Z,275.62
2019-03-13T10:03:38.943Z,157.50
2019-03-13T10:04:38.903Z,219.38
2019-03-13T10:05:38.923Z,258.75
2019-03-13T10:06:38.887Z,208.12
2019-03-13T10:07:38.868Z,185.62
2019-03-13T10:08:38.859Z,281.25
2019-03-13T10:09:38.849Z,208.12
2019-03-13T10:10:38.858Z,236.25
2019-03-13T10:11:38.851Z,196.88
2019-03-13T10:12:38.815Z,196.88
2019-03-13T10:13:38.800Z,303.75
2019-03-13T10:14:38.791Z,275.62
2019-03-13T10:15:38.782Z,348.75
2019-03-13T10:16:38.799Z,230.62
2019-03-13T10:17:38.760Z,236.25
2019-03-13T10:18:38.772Z,230.62
2019-03-13T10:19:38.760Z,219.38
2019-03-13T10:20:38.724Z,208.12
2019-03-13T10:21:38.721Z,180.00
2019-03-13T10:22:38.704Z,174.38
2019-03-13T10:23:38.712Z,180.00
2019-03-13T10:24:38.680Z,157.50
2019-03-13T10:25:38.668Z,151.88
2019-03-13T10:26:38.680Z,163.12
2019-03-13T10:27:38.644Z,168.75
2019-03-13T10:28:38.632Z,196.88
2019-03-13T10:29:38.623Z,196.88
2019-03-13T10:30:38.608Z,213.75
2019-03-13T10:31:38.621Z,196.88
2019-03-13T10:32:38.587Z,185.62
2019-03-13T10:33:38.600Z,202.50
2019-03-13T10:34:38.570Z,191.25
2019-03-13T10:35:38.552Z,180.00
2019-03-13T10:36:38.542Z,191.25
2019-03-13T10:37:38.534Z,191.25
2019-03-13T10:38:38.545Z,180.00
2019-03-13T10:39:38.507Z,185.62
2019-03-13T10:40:38.501Z,185.62
2019-03-13T10:41:38.509Z,185.62
2019-03-13T10:42:38.477Z,185.62
2019-03-13T10:43:38.465Z,185.62
2019-03-13T10:44:38.474Z,191.25
2019-03-13T10:45:38.460Z,191.25
2019-03-13T10:46:38.615Z,202.50
2019-03-13T10:47:38.416Z,202.50
2019-03-13T10:48:38.445Z,180.00
2019-03-13T10:49:38.468Z,163.12
2019-03-13T10:50:38.402Z,174.38
2019-03-13T10:51:38.373Z,196.88
2019-03-13T10:52:38.365Z,185.62
2019-03-13T10:53:38.354Z,168.75
2019-03-13T10:54:38.361Z,185.62
2019-03-13T10:55:38.328Z,180.00
2019-03-13T10:56:38.316Z,191.25
2019-03-13T10:57:38.304Z,185.62
2019-03-13T10:58:38.292Z,196.88
2019-03-13T10:59:38.312Z,196.88
2019-03-13T11:00:38.315Z,196.88
2019-03-13T11:01:38.264Z,185.62
2019-03-13T11:02:38.248Z,191.25
2019-03-13T11:03:38.240Z,185.62
2019-03-13T11:04:38.231Z,157.50
2019-03-13T11:05:38.244Z,146.25
2019-03-13T11:06:38.251Z,140.62
2019-03-13T11:07:38.196Z,140.62
2019-03-13T11:08:38.180Z,146.25
2019-03-13T11:09:38.169Z,151.88
2019-03-13T11:10:38.182Z,157.50
2019-03-13T11:11:38.191Z,168.75
2019-03-13T11:12:38.718Z,174.38
2019-03-13T11:13:38.125Z,180.00
2019-03-13T11:14:38.176Z,174.38
2019-03-13T11:15:38.159Z,168.75
2019-03-13T11:16:38.095Z,163.12
2019-03-13T11:17:38.149Z,157.50
2019-03-13T11:18:38.089Z,146.25
2019-03-13T11:19:38.095Z,140.62
2019-03-13T11:20:38.053Z,140.62
2019-03-13T11:21:38.047Z,157.50
2019-03-13T11:22:38.038Z,163.12
2019-03-13T11:23:38.042Z,151.88
2019-03-13T11:24:38.003Z,140.62
2019-03-13T11:25:38.029Z,140.62
2019-03-13T11:26:38.001Z,140.62
2019-03-13T11:27:38.351Z,123.75
2019-03-13T11:28:37.973Z,112.50
2019-03-13T11:29:37.943Z,112.50
2019-03-13T11:30:37.958Z,123.75
2019-03-13T11:31:37.924Z,140.62
2019-03-13T11:32:37.910Z,146.25
2019-03-13T11:33:37.898Z,157.50
2019-03-13T11:34:37.908Z,208.12
2019-03-13T11:35:37.875Z,202.50
2019-03-13T11:36:37.897Z,196.88
2019-03-13T11:37:37.853Z,202.50
2019-03-13T11:38:37.862Z,185.62
2019-03-13T11:39:37.830Z,180.00
2019-03-13T11:40:37.819Z,185.62
2019-03-13T11:41:37.812Z,191.25
2019-03-13T11:42:37.815Z,196.88
2019-03-13T11:43:37.814Z,196.88
2019-03-13T11:44:37.774Z,202.50
2019-03-13T11:45:37.763Z,202.50
2019-03-13T11:46:37.772Z,202.50
2019-03-13T11:47:42.640Z,208.12
2019-03-13T11:48:38.730Z,230.62
2019-03-13T11:49:37.741Z,253.12
2019-03-13T11:50:37.710Z,309.38
2019-03-13T11:51:37.721Z,286.88
2019-03-13T11:52:37.682Z,236.25
2019-03-13T11:53:37.672Z,348.75
2019-03-13T11:54:37.689Z,253.12
2019-03-13T11:55:37.679Z,337.50
2019-03-13T11:56:37.640Z,292.50
2019-03-13T11:57:37.627Z,376.88
2019-03-13T11:58:37.669Z,360.00
2019-03-13T11:59:37.611Z,371.25
2019-03-13T12:00:37.595Z,236.25
2019-03-13T12:01:45.433Z,236.25
2019-03-13T12:02:38.596Z,281.25
2019-03-13T12:03:37.563Z,281.25
2019-03-13T12:04:37.550Z,371.25
2019-03-13T12:05:37.539Z,360.00
2019-03-13T12:06:37.549Z,331.88
2019-03-13T12:07:37.515Z,326.25
2019-03-13T12:08:37.505Z,230.62
2019-03-13T12:09:37.492Z,337.50
2019-03-13T12:10:37.495Z,337.50
2019-03-13T12:11:37.497Z,320.62
2019-03-13T12:12:37.467Z,241.88
2019-03-13T12:13:37.449Z,315.00
2019-03-13T12:14:37.436Z,309.38
2019-03-13T12:15:37.455Z,315.00
2019-03-13T12:16:37.413Z,320.62
2019-03-13T12:17:37.426Z,320.62
2019-03-13T12:18:37.391Z,309.38
2019-03-13T12:19:37.384Z,309.38
2019-03-13T12:20:37.370Z,270.00
2019-03-13T12:21:37.357Z,281.25
2019-03-13T12:22:37.383Z,275.62
2019-03-13T12:23:37.333Z,348.75
2019-03-13T12:24:37.322Z,270.00
2019-03-13T12:25:37.312Z,264.38
2019-03-13T12:26:37.301Z,264.38
2019-03-13T12:27:37.410Z,286.88
2019-03-13T12:28:37.277Z,264.38
2019-03-13T12:29:37.265Z,247.50
2019-03-13T12:30:37.259Z,247.50
2019-03-13T12:31:37.243Z,326.25
2019-03-13T12:32:37.273Z,264.38
2019-03-13T12:33:37.221Z,230.62
2019-03-13T12:34:37.212Z,191.25
2019-03-13T12:35:37.199Z,191.25
2019-03-13T12:36:37.189Z,270.00
2019-03-13T12:37:37.194Z,275.62
2019-03-13T12:38:37.200Z,303.75
2019-03-13T12:39:37.154Z,326.25
2019-03-13T12:40:37.141Z,253.12
2019-03-13T12:41:37.130Z,225.00
2019-03-13T12:42:37.120Z,225.00
2019-03-13T12:43:37.138Z,247.50
2019-03-13T12:44:37.097Z,225.00
2019-03-13T12:45:37.087Z,202.50
2019-03-13T12:46:37.075Z,208.12
2019-03-13T12:47:37.066Z,191.25
2019-03-13T12:48:37.083Z,185.62
2019-03-13T12:49:37.040Z,180.00
2019-03-13T12:50:37.037Z,163.12
2019-03-13T12:51:37.018Z,163.12
2019-03-13T12:52:37.091Z,196.88
2019-03-13T12:53:37.020Z,196.88
2019-03-13T12:54:36.985Z,180.00
2019-03-13T12:55:36.973Z,174.38